sensor_id;sensor_type;location;lat;lon;timestamp;pressure;altitude;pressure_sealevel;temperature
69857;BMP280;57147;53.582;10.112;2023-03-14T00:03:00;98496.41;;;10.06
69857;BMP280;57147;53.582;10.112;2023-03-14T00:08:01;98513.25;;;10.14
69857;BMP280;57147;53.582;10.112;2023-03-14T00:13:02;98520.13;;;10.15
69857;BMP280;57147;53.582;10.112;2023-03-14T00:18:05;98536.16;;;10.06
69857;BMP280;57147;53.582;10.112;2023-03-14T00:23:06;98536.34;;;10.13
69857;BMP280;57147;53.582;10.112;2023-03-14T00:28:07;98540.44;;;10.11
69857;BMP280;57147;53.582;10.112;2023-03-14T00:33:10;98523.09;;;10.13
69857;BMP280;57147;53.582;10.112;2023-03-14T00:38:10;98517.91;;;10.17
69857;BMP280;57147;53.582;10.112;2023-03-14T00:43:11;98517.47;;;10.15
69857;BMP280;57147;53.582;10.112;2023-03-14T00:48:14;98509.50;;;10.15
69857;BMP280;57147;53.582;10.112;2023-03-14T00:53:15;98488.13;;;10.08
69857;BMP280;57147;53.582;10.112;2023-03-14T00:58:17;98493.44;;;10.08
69857;BMP280;57147;53.582;10.112;2023-03-14T01:03:21;98491.09;;;10.06
69857;BMP280;57147;53.582;10.112;2023-03-14T01:08:21;98501.38;;;10.08
69857;BMP280;57147;53.582;10.112;2023-03-14T01:13:22;98498.66;;;10.04
69857;BMP280;57147;53.582;10.112;2023-03-14T01:18:25;98510.72;;;10.02
69857;BMP280;57147;53.582;10.112;2023-03-14T01:23:25;98514.81;;;9.99
69857;BMP280;57147;53.582;10.112;2023-03-14T01:28:26;98511.53;;;10.06
69857;BMP280;57147;53.582;10.112;2023-03-14T01:33:29;98503.94;;;10.04
69857;BMP280;57147;53.582;10.112;2023-03-14T01:38:30;98458.38;;;9.99
69857;BMP280;57147;53.582;10.112;2023-03-14T01:43:31;98443.16;;;9.96
69857;BMP280;57147;53.582;10.112;2023-03-14T01:48:38;98438.03;;;9.87
69857;BMP280;57147;53.582;10.112;2023-03-14T01:53:39;98436.66;;;9.77
69857;BMP280;57147;53.582;10.112;2023-03-14T01:58:41;98435.09;;;9.76
69857;BMP280;57147;53.582;10.112;2023-03-14T02:03:50;98423.25;;;9.58
69857;BMP280;57147;53.582;10.112;2023-03-14T02:08:53;98433.38;;;9.68
69857;BMP280;57147;53.582;10.112;2023-03-14T02:13:55;98414.66;;;9.61
69857;BMP280;57147;53.582;10.112;2023-03-14T02:18:58;98392.34;;;9.62
69857;BMP280;57147;53.582;10.112;2023-03-14T02:24:05;98355.09;;;9.55
69857;BMP280;57147;53.582;10.112;2023-03-14T02:29:11;98367.00;;;9.49
69857;BMP280;57147;53.582;10.112;2023-03-14T02:34:12;98366.16;;;9.45
69857;BMP280;57147;53.582;10.112;2023-03-14T02:39:18;98373.66;;;9.43
69857;BMP280;57147;53.582;10.112;2023-03-14T02:44:24;98386.91;;;9.43
69857;BMP280;57147;53.582;10.112;2023-03-14T02:49:25;98401.03;;;9.47
69857;BMP280;57147;53.582;10.112;2023-03-14T02:54:27;98394.56;;;9.60
69857;BMP280;57147;53.582;10.112;2023-03-14T02:59:30;98392.34;;;9.62
69857;BMP280;57147;53.582;10.112;2023-03-14T03:04:31;98393.19;;;9.66
69857;BMP280;57147;53.582;10.112;2023-03-14T03:09:31;98394.06;;;9.70
69857;BMP280;57147;53.582;10.112;2023-03-14T03:14:37;98388.06;;;9.73
69857;BMP280;57147;53.582;10.112;2023-03-14T03:19:38;98386.97;;;9.74
69857;BMP280;57147;53.582;10.112;2023-03-14T03:24:38;98374.16;;;9.76
69857;BMP280;57147;53.582;10.112;2023-03-14T03:29:42;98355.00;;;9.67
69857;BMP280;57147;53.582;10.112;2023-03-14T03:34:42;98361.75;;;9.80
69857;BMP280;57147;53.582;10.112;2023-03-14T03:39:43;98371.84;;;9.90
69857;BMP280;57147;53.582;10.112;2023-03-14T03:44:46;98359.22;;;10.00
69857;BMP280;57147;53.582;10.112;2023-03-14T03:49:47;98352.50;;;10.06
69857;BMP280;57147;53.582;10.112;2023-03-14T03:54:47;98323.06;;;9.91
69857;BMP280;57147;53.582;10.112;2023-03-14T03:59:50;98341.34;;;9.97
69857;BMP280;57147;53.582;10.112;2023-03-14T04:04:51;98320.41;;;9.91
69857;BMP280;57147;53.582;10.112;2023-03-14T04:09:52;98332.53;;;9.92
69857;BMP280;57147;53.582;10.112;2023-03-14T04:14:55;98326.81;;;9.90
69857;BMP280;57147;53.582;10.112;2023-03-14T04:19:56;98318.53;;;9.76
69857;BMP280;57147;53.582;10.112;2023-03-14T04:24:57;98321.78;;;9.85
69857;BMP280;57147;53.582;10.112;2023-03-14T04:30:00;98316.47;;;9.85
69857;BMP280;57147;53.582;10.112;2023-03-14T04:35:01;98301.25;;;9.82
69857;BMP280;57147;53.582;10.112;2023-03-14T04:40:01;98275.28;;;9.72
69857;BMP280;57147;53.582;10.112;2023-03-14T04:45:06;98293.91;;;9.91
69857;BMP280;57147;53.582;10.112;2023-03-14T04:50:08;98295.50;;;9.96
69857;BMP280;57147;53.582;10.112;2023-03-14T04:55:09;98309.13;;;9.95
69857;BMP280;57147;53.582;10.112;2023-03-14T05:00:12;98289.44;;;9.96
69857;BMP280;57147;53.582;10.112;2023-03-14T05:05:13;98295.59;;;10.00
69857;BMP280;57147;53.582;10.112;2023-03-14T05:10:14;98295.75;;;10.07
69857;BMP280;57147;53.582;10.112;2023-03-14T05:15:17;98284.72;;;10.05
69857;BMP280;57147;53.582;10.112;2023-03-14T05:20:18;98273.75;;;10.06
69857;BMP280;57147;53.582;10.112;2023-03-14T05:25:18;98269.09;;;10.00
69857;BMP280;57147;53.582;10.112;2023-03-14T05:30:22;98258.03;;;9.78
69857;BMP280;57147;53.582;10.112;2023-03-14T05:35:22;98294.22;;;9.11
69857;BMP280;57147;53.582;10.112;2023-03-14T05:40:23;98342.19;;;8.70
69857;BMP280;57147;53.582;10.112;2023-03-14T05:45:26;98355.75;;;8.56
69857;BMP280;57147;53.582;10.112;2023-03-14T05:50:27;98366.69;;;8.55
69857;BMP280;57147;53.582;10.112;2023-03-14T05:55:27;98361.41;;;8.55
69857;BMP280;57147;53.582;10.112;2023-03-14T06:00:31;98363.03;;;8.59
69857;BMP280;57147;53.582;10.112;2023-03-14T06:05:31;98347.94;;;8.60
69857;BMP280;57147;53.582;10.112;2023-03-14T06:10:32;98325.34;;;8.62
69857;BMP280;57147;53.582;10.112;2023-03-14T06:15:35;98339.97;;;8.72
69857;BMP280;57147;53.582;10.112;2023-03-14T06:20:36;98314.41;;;8.76
69857;BMP280;57147;53.582;10.112;2023-03-14T06:25:37;98318.78;;;8.84
69857;BMP280;57147;53.582;10.112;2023-03-14T06:30:40;98275.56;;;8.92
69857;BMP280;57147;53.582;10.112;2023-03-14T06:35:41;98277.69;;;8.87
69857;BMP280;57147;53.582;10.112;2023-03-14T06:40:41;98283.03;;;8.90
69857;BMP280;57147;53.582;10.112;2023-03-14T06:45:45;98286.31;;;8.99
69857;BMP280;57147;53.582;10.112;2023-03-14T06:50:45;98284.56;;;9.03
69857;BMP280;57147;53.582;10.112;2023-03-14T06:55:47;98285.59;;;9.14
69857;BMP280;57147;53.582;10.112;2023-03-14T07:00:52;98284.22;;;9.21
69857;BMP280;57147;53.582;10.112;2023-03-14T07:05:53;98289.09;;;9.19
69857;BMP280;57147;53.582;10.112;2023-03-14T07:10:56;98296.34;;;9.22
69857;BMP280;57147;53.582;10.112;2023-03-14T07:16:00;98295.31;;;9.26
69857;BMP280;57147;53.582;10.112;2023-03-14T07:21:01;98309.94;;;9.36
69857;BMP280;57147;53.582;10.112;2023-03-14T07:26:01;98326.28;;;9.38
69857;BMP280;57147;53.582;10.112;2023-03-14T07:31:05;98338.44;;;9.54
69857;BMP280;57147;53.582;10.112;2023-03-14T07:36:07;98327.56;;;9.44
69857;BMP280;57147;53.582;10.112;2023-03-14T07:41:08;98326.13;;;9.62
69857;BMP280;57147;53.582;10.112;2023-03-14T07:46:11;98334.09;;;9.62
69857;BMP280;57147;53.582;10.112;2023-03-14T07:51:12;98336.03;;;9.65
69857;BMP280;57147;53.582;10.112;2023-03-14T07:56:13;98332.53;;;9.77
69857;BMP280;57147;53.582;10.112;2023-03-14T08:01:16;98324.75;;;9.68
69857;BMP280;57147;53.582;10.112;2023-03-14T08:06:16;98332.03;;;9.71
69857;BMP280;57147;53.582;10.112;2023-03-14T08:11:17;98350.75;;;9.78
69857;BMP280;57147;53.582;10.112;2023-03-14T08:16:20;98335.25;;;9.80
69857;BMP280;57147;53.582;10.112;2023-03-14T08:21:21;98347.75;;;9.96
69857;BMP280;57147;53.582;10.112;2023-03-14T08:26:21;98330.34;;;9.95
69857;BMP280;57147;53.582;10.112;2023-03-14T08:31:26;98342.06;;;10.13
69857;BMP280;57147;53.582;10.112;2023-03-14T08:36:27;98348.75;;;10.07
69857;BMP280;57147;53.582;10.112;2023-03-14T08:41:28;98336.94;;;10.20
69857;BMP280;57147;53.582;10.112;2023-03-14T08:46:34;98338.63;;;10.28
69857;BMP280;57147;53.582;10.112;2023-03-14T08:51:34;98351.41;;;10.42
69857;BMP280;57147;53.582;10.112;2023-03-14T08:56:35;98358.09;;;10.51
69857;BMP280;57147;53.582;10.112;2023-03-14T09:01:38;98335.84;;;10.40
69857;BMP280;57147;53.582;10.112;2023-03-14T09:06:39;98344.09;;;10.35
69857;BMP280;57147;53.582;10.112;2023-03-14T09:11:39;98312.47;;;10.11
69857;BMP280;57147;53.582;10.112;2023-03-14T09:16:43;98316.25;;;10.10
69857;BMP280;57147;53.582;10.112;2023-03-14T09:21:43;98305.34;;;9.96
69857;BMP280;57147;53.582;10.112;2023-03-14T09:26:44;98314.72;;;10.09
69857;BMP280;57147;53.582;10.112;2023-03-14T09:31:47;98328.47;;;10.14
69857;BMP280;57147;53.582;10.112;2023-03-14T09:36:48;98328.38;;;10.11
69857;BMP280;57147;53.582;10.112;2023-03-14T09:41:50;98332.66;;;10.31
69857;BMP280;57147;53.582;10.112;2023-03-14T09:46:55;98334.69;;;10.22
69857;BMP280;57147;53.582;10.112;2023-03-14T09:52:00;98348.19;;;9.98
69857;BMP280;57147;53.582;10.112;2023-03-14T09:57:02;98350.81;;;9.66
69857;BMP280;57147;53.582;10.112;2023-03-14T10:02:13;98347.03;;;9.51
69857;BMP280;57147;53.582;10.112;2023-03-14T10:07:15;98505.66;;;7.66
69857;BMP280;57147;53.582;10.112;2023-03-14T10:12:17;98573.56;;;6.68
69857;BMP280;57147;53.582;10.112;2023-03-14T10:17:20;98597.47;;;6.37
69857;BMP280;57147;53.582;10.112;2023-03-14T10:22:23;98663.53;;;6.24
69857;BMP280;57147;53.582;10.112;2023-03-14T10:27:29;98694.31;;;6.06
69857;BMP280;57147;53.582;10.112;2023-03-14T10:32:36;98646.78;;;5.46
69857;BMP280;57147;53.582;10.112;2023-03-14T10:37:48;98706.06;;;5.52
69857;BMP280;57147;53.582;10.112;2023-03-14T10:42:53;98709.88;;;4.92
69857;BMP280;57147;53.582;10.112;2023-03-14T10:47:58;98724.25;;;4.50
69857;BMP280;57147;53.582;10.112;2023-03-14T10:53:02;98763.47;;;4.33
69857;BMP280;57147;53.582;10.112;2023-03-14T10:58:02;98798.28;;;3.98
69857;BMP280;57147;53.582;10.112;2023-03-14T11:03:09;98795.13;;;3.68
69857;BMP280;57147;53.582;10.112;2023-03-14T11:08:15;98771.19;;;3.37
69857;BMP280;57147;53.582;10.112;2023-03-14T11:13:23;98771.97;;;3.38
69857;BMP280;57147;53.582;10.112;2023-03-14T11:18:41;98767.69;;;3.28
69857;BMP280;57147;53.582;10.112;2023-03-14T11:23:52;98790.44;;;3.33
69857;BMP280;57147;53.582;10.112;2023-03-14T11:28:57;98822.47;;;3.30
69857;BMP280;57147;53.582;10.112;2023-03-14T11:34:11;98850.09;;;3.03
69857;BMP280;57147;53.582;10.112;2023-03-14T11:39:16;98825.25;;;2.77
69857;BMP280;57147;53.582;10.112;2023-03-14T11:44:18;98863.06;;;3.13
69857;BMP280;57147;53.582;10.112;2023-03-14T11:49:30;98843.25;;;3.07
69857;BMP280;57147;53.582;10.112;2023-03-14T11:54:39;98873.84;;;3.31
69857;BMP280;57147;53.582;10.112;2023-03-14T11:59:50;98893.59;;;3.79
69857;BMP280;57147;53.582;10.112;2023-03-14T12:10:19;98917.06;;;4.22
69857;BMP280;57147;53.582;10.112;2023-03-14T12:15:21;98929.06;;;4.09
69857;BMP280;57147;53.582;10.112;2023-03-14T12:20:26;98956.88;;;3.97
69857;BMP280;57147;53.582;10.112;2023-03-14T12:25:28;98979.50;;;4.25
69857;BMP280;57147;53.582;10.112;2023-03-14T12:30:32;99001.28;;;4.25
69857;BMP280;57147;53.582;10.112;2023-03-14T12:35:38;98989.50;;;4.23
69857;BMP280;57147;53.582;10.112;2023-03-14T12:40:54;99028.56;;;4.29
69857;BMP280;57147;53.582;10.112;2023-03-14T12:46:18;99048.22;;;4.32
69857;BMP280;57147;53.582;10.112;2023-03-14T12:51:28;99043.22;;;4.49
69857;BMP280;57147;53.582;10.112;2023-03-14T12:56:54;99066.31;;;4.52
69857;BMP280;57147;53.582;10.112;2023-03-14T13:02:01;99073.84;;;4.73
69857;BMP280;57147;53.582;10.112;2023-03-14T13:07:11;99098.19;;;4.64
69857;BMP280;57147;53.582;10.112;2023-03-14T13:12:16;99099.25;;;4.26
69857;BMP280;57147;53.582;10.112;2023-03-14T13:17:29;99120.41;;;4.16
69857;BMP280;57147;53.582;10.112;2023-03-14T13:22:34;99113.44;;;4.25
69857;BMP280;57147;53.582;10.112;2023-03-14T13:27:38;99144.31;;;4.71
69857;BMP280;57147;53.582;10.112;2023-03-14T13:32:41;99172.84;;;4.96
69857;BMP280;57147;53.582;10.112;2023-03-14T13:37:45;99188.53;;;5.33
69857;BMP280;57147;53.582;10.112;2023-03-14T13:42:46;99273.03;;;5.32
69857;BMP280;57147;53.582;10.112;2023-03-14T13:47:47;99292.50;;;5.12
69857;BMP280;57147;53.582;10.112;2023-03-14T13:52:55;99341.19;;;4.91
69857;BMP280;57147;53.582;10.112;2023-03-14T13:57:55;99346.47;;;4.91
69857;BMP280;57147;53.582;10.112;2023-03-14T14:02:58;99360.34;;;5.15
69857;BMP280;57147;53.582;10.112;2023-03-14T14:08:02;99381.28;;;5.01
69857;BMP280;57147;53.582;10.112;2023-03-14T14:13:06;99378.72;;;4.78
69857;BMP280;57147;53.582;10.112;2023-03-14T14:18:11;99401.38;;;4.74
69857;BMP280;57147;53.582;10.112;2023-03-14T14:23:17;99393.28;;;4.89
69857;BMP280;57147;53.582;10.112;2023-03-14T14:28:25;99407.94;;;4.95
69857;BMP280;57147;53.582;10.112;2023-03-14T14:33:26;99462.03;;;5.01
69857;BMP280;57147;53.582;10.112;2023-03-14T14:38:29;99441.28;;;4.99
69857;BMP280;57147;53.582;10.112;2023-03-14T14:43:32;99462.13;;;4.96
69857;BMP280;57147;53.582;10.112;2023-03-14T14:48:36;99477.31;;;4.99
69857;BMP280;57147;53.582;10.112;2023-03-14T14:53:44;99488.97;;;4.93
69857;BMP280;57147;53.582;10.112;2023-03-14T14:58:45;99512.91;;;4.91
69857;BMP280;57147;53.582;10.112;2023-03-14T15:03:49;99519.16;;;4.72
69857;BMP280;57147;53.582;10.112;2023-03-14T15:08:52;99519.50;;;4.89
69857;BMP280;57147;53.582;10.112;2023-03-14T15:13:54;99530.19;;;4.74
69857;BMP280;57147;53.582;10.112;2023-03-14T15:18:56;99549.50;;;4.88
69857;BMP280;57147;53.582;10.112;2023-03-14T15:23:59;99568.31;;;5.00
69857;BMP280;57147;53.582;10.112;2023-03-14T15:29:00;99588.81;;;5.03
69857;BMP280;57147;53.582;10.112;2023-03-14T15:34:00;99562.06;;;4.96
69857;BMP280;57147;53.582;10.112;2023-03-14T15:39:06;99613.66;;;4.58
69857;BMP280;57147;53.582;10.112;2023-03-14T15:44:07;99640.19;;;4.61
69857;BMP280;57147;53.582;10.112;2023-03-14T15:49:08;99633.94;;;4.52
69857;BMP280;57147;53.582;10.112;2023-03-14T15:54:11;99663.75;;;4.72
69857;BMP280;57147;53.582;10.112;2023-03-14T15:59:12;99690.13;;;4.56
69857;BMP280;57147;53.582;10.112;2023-03-14T16:04:12;99686.63;;;4.71
69857;BMP280;57147;53.582;10.112;2023-03-14T16:09:16;99690.06;;;4.22
69857;BMP280;57147;53.582;10.112;2023-03-14T16:14:16;99722.28;;;4.43
69857;BMP280;57147;53.582;10.112;2023-03-14T16:19:17;99729.59;;;4.51
69857;BMP280;57147;53.582;10.112;2023-03-14T16:24:21;99711.50;;;4.40
69857;BMP280;57147;53.582;10.112;2023-03-14T16:29:22;99721.28;;;4.24
69857;BMP280;57147;53.582;10.112;2023-03-14T16:34:23;99763.91;;;4.11
69857;BMP280;57147;53.582;10.112;2023-03-14T16:39:32;99760.28;;;3.97
69857;BMP280;57147;53.582;10.112;2023-03-14T16:44:33;99777.09;;;3.90
69857;BMP280;57147;53.582;10.112;2023-03-14T16:49:34;99781.84;;;3.83
69857;BMP280;57147;53.582;10.112;2023-03-14T16:54:38;99797.06;;;3.76
69857;BMP280;57147;53.582;10.112;2023-03-14T16:59:44;99818.06;;;3.66
69857;BMP280;57147;53.582;10.112;2023-03-14T17:04:45;99827.00;;;3.65
69857;BMP280;57147;53.582;10.112;2023-03-14T17:09:56;99844.28;;;3.46
69857;BMP280;57147;53.582;10.112;2023-03-14T17:14:58;99836.91;;;3.38
69857;BMP280;57147;53.582;10.112;2023-03-14T17:20:01;99865.28;;;3.36
69857;BMP280;57147;53.582;10.112;2023-03-14T17:25:17;99878.38;;;3.31
69857;BMP280;57147;53.582;10.112;2023-03-14T17:30:18;99892.00;;;3.33
69857;BMP280;57147;53.582;10.112;2023-03-14T17:35:18;99912.22;;;3.32
69857;BMP280;57147;53.582;10.112;2023-03-14T17:40:23;99912.94;;;3.12
69857;BMP280;57147;53.582;10.112;2023-03-14T17:45:24;99922.91;;;3.20
69857;BMP280;57147;53.582;10.112;2023-03-14T17:50:24;99931.81;;;3.14
69857;BMP280;57147;53.582;10.112;2023-03-14T17:55:28;99912.56;;;2.88
69857;BMP280;57147;53.582;10.112;2023-03-14T18:00:28;99946.97;;;3.02
69857;BMP280;57147;53.582;10.112;2023-03-14T18:05:30;99961.09;;;2.96
69857;BMP280;57147;53.582;10.112;2023-03-14T18:10:33;99966.88;;;2.93
69857;BMP280;57147;53.582;10.112;2023-03-14T18:15:34;99963.88;;;2.79
69857;BMP280;57147;53.582;10.112;2023-03-14T18:20:36;99984.19;;;2.94
69857;BMP280;57147;53.582;10.112;2023-03-14T18:25:39;100002.53;;;2.99
69857;BMP280;57147;53.582;10.112;2023-03-14T18:30:40;99993.50;;;2.80
69857;BMP280;57147;53.582;10.112;2023-03-14T18:35:41;100021.88;;;2.88
69857;BMP280;57147;53.582;10.112;2023-03-14T18:40:44;99984.75;;;2.32
69857;BMP280;57147;53.582;10.112;2023-03-14T18:45:45;99933.47;;;1.29
69857;BMP280;57147;53.582;10.112;2023-03-14T18:50:45;99956.75;;;0.92
69857;BMP280;57147;53.582;10.112;2023-03-14T18:55:49;99977.50;;;0.65
69857;BMP280;57147;53.582;10.112;2023-03-14T19:00:49;99989.84;;;0.86
69857;BMP280;57147;53.582;10.112;2023-03-14T19:05:50;99962.88;;;0.64
69857;BMP280;57147;53.582;10.112;2023-03-14T19:10:56;99972.28;;;0.81
69857;BMP280;57147;53.582;10.112;2023-03-14T19:15:57;99987.06;;;1.09
69857;BMP280;57147;53.582;10.112;2023-03-14T19:21:00;99988.75;;;0.99
69857;BMP280;57147;53.582;10.112;2023-03-14T19:26:04;100018.19;;;1.11
69857;BMP280;57147;53.582;10.112;2023-03-14T19:31:04;100035.91;;;1.26
69857;BMP280;57147;53.582;10.112;2023-03-14T19:36:06;100048.91;;;1.21
69857;BMP280;57147;53.582;10.112;2023-03-14T19:41:10;100032.47;;;1.03
69857;BMP280;57147;53.582;10.112;2023-03-14T19:46:10;100022.47;;;1.00
69857;BMP280;57147;53.582;10.112;2023-03-14T19:51:11;100040.66;;;1.12
69857;BMP280;57147;53.582;10.112;2023-03-14T19:56:14;100042.44;;;1.06
69857;BMP280;57147;53.582;10.112;2023-03-14T20:01:15;100096.88;;;1.48
69857;BMP280;57147;53.582;10.112;2023-03-14T20:06:16;100106.78;;;1.46
69857;BMP280;57147;53.582;10.112;2023-03-14T20:11:19;100104.66;;;1.43
69857;BMP280;57147;53.582;10.112;2023-03-14T20:16:20;100100.97;;;1.39
69857;BMP280;57147;53.582;10.112;2023-03-14T20:21:20;100157.13;;;1.53
69857;BMP280;57147;53.582;10.112;2023-03-14T20:26:24;100168.69;;;1.57
69857;BMP280;57147;53.582;10.112;2023-03-14T20:31:24;100195.31;;;1.88
69857;BMP280;57147;53.582;10.112;2023-03-14T20:36:25;100193.38;;;1.28
69857;BMP280;57147;53.582;10.112;2023-03-14T20:41:28;100171.75;;;0.87
69857;BMP280;57147;53.582;10.112;2023-03-14T20:46:29;100170.31;;;0.68
69857;BMP280;57147;53.582;10.112;2023-03-14T20:51:29;100140.84;;;0.27
69857;BMP280;57147;53.582;10.112;2023-03-14T20:56:32;100169.19;;;0.47
69857;BMP280;57147;53.582;10.112;2023-03-14T21:01:33;100199.34;;;0.55
69857;BMP280;57147;53.582;10.112;2023-03-14T21:06:33;100207.84;;;0.62
69857;BMP280;57147;53.582;10.112;2023-03-14T21:11:37;100198.31;;;0.56
69857;BMP280;57147;53.582;10.112;2023-03-14T21:16:37;100194.59;;;0.52
69857;BMP280;57147;53.582;10.112;2023-03-14T21:21:38;100219.88;;;0.63
69857;BMP280;57147;53.582;10.112;2023-03-14T21:26:42;100229.38;;;0.69
69857;BMP280;57147;53.582;10.112;2023-03-14T21:31:43;100207.16;;;0.66
69857;BMP280;57147;53.582;10.112;2023-03-14T21:36:43;100246.66;;;0.70
69857;BMP280;57147;53.582;10.112;2023-03-14T21:41:47;100206.19;;;0.44
69857;BMP280;57147;53.582;10.112;2023-03-14T21:46:48;100242.50;;;0.57
69857;BMP280;57147;53.582;10.112;2023-03-14T21:51:48;100236.28;;;0.46
69857;BMP280;57147;53.582;10.112;2023-03-14T21:56:52;100250.56;;;0.56
69857;BMP280;57147;53.582;10.112;2023-03-14T22:01:52;100268.50;;;0.64
69857;BMP280;57147;53.582;10.112;2023-03-14T22:06:53;100253.91;;;0.68
69857;BMP280;57147;53.582;10.112;2023-03-14T22:11:56;100270.94;;;0.82
69857;BMP280;57147;53.582;10.112;2023-03-14T22:16:58;100261.84;;;0.73
69857;BMP280;57147;53.582;10.112;2023-03-14T22:21:58;100305.53;;;0.37
69857;BMP280;57147;53.582;10.112;2023-03-14T22:27:02;100335.72;;;0.10
69857;BMP280;57147;53.582;10.112;2023-03-14T22:32:03;100348.56;;;0.35
69857;BMP280;57147;53.582;10.112;2023-03-14T22:37:05;100350.41;;;0.46
69857;BMP280;57147;53.582;10.112;2023-03-14T22:42:08;100351.19;;;0.46
69857;BMP280;57147;53.582;10.112;2023-03-14T22:47:09;100332.34;;;0.44
69857;BMP280;57147;53.582;10.112;2023-03-14T22:52:10;100333.25;;;0.38
69857;BMP280;57147;53.582;10.112;2023-03-14T22:57:13;100339.16;;;0.45
69857;BMP280;57147;53.582;10.112;2023-03-14T23:02:14;100339.59;;;0.42
69857;BMP280;57147;53.582;10.112;2023-03-14T23:07:15;100337.44;;;0.39
69857;BMP280;57147;53.582;10.112;2023-03-14T23:12:18;100338.91;;;0.35
69857;BMP280;57147;53.582;10.112;2023-03-14T23:17:19;100326.19;;;0.27
69857;BMP280;57147;53.582;10.112;2023-03-14T23:22:19;100337.31;;;0.34
69857;BMP280;57147;53.582;10.112;2023-03-14T23:27:23;100343.78;;;0.32
69857;BMP280;57147;53.582;10.112;2023-03-14T23:32:23;100363.69;;;0.44
69857;BMP280;57147;53.582;10.112;2023-03-14T23:37:24;100365.81;;;0.36
69857;BMP280;57147;53.582;10.112;2023-03-14T23:42:27;100379.09;;;0.34
69857;BMP280;57147;53.582;10.112;2023-03-14T23:47:28;100366.97;;;0.40
69857;BMP280;57147;53.582;10.112;2023-03-14T23:52:28;100369.91;;;0.55
69857;BMP280;57147;53.582;10.112;2023-03-14T23:57:32;100365.84;;;0.47
